sensor_id;sensor_type;location;lat;lon;timestamp;P1;durP1;ratioP1;P2;durP2;ratioP2
36443;SDS011;24692;45.642;13.806;2024-01-07T00:00:02;0.30;;;0.30;;
36443;SDS011;24692;45.642;13.806;2024-01-07T00:02:28;0.63;;;0.30;;
36443;SDS011;24692;45.642;13.806;2024-01-07T00:04:55;0.83;;;0.30;;
36443;SDS011;24692;45.642;13.806;2024-01-07T00:07:21;0.17;;;0.17;;
36443;SDS011;24692;45.642;13.806;2024-01-07T00:09:47;0.40;;;0.20;;
36443;SDS011;24692;45.642;13.806;2024-01-07T00:12:13;0.30;;;0.30;;
36443;SDS011;24692;45.642;13.806;2024-01-07T00:14:39;0.30;;;0.30;;
36443;SDS011;24692;45.642;13.806;2024-01-07T00:17:05;0.30;;;0.30;;
36443;SDS011;24692;45.642;13.806;2024-01-07T00:19:31;0.30;;;0.30;;
36443;SDS011;24692;45.642;13.806;2024-01-07T00:22:00;0.30;;;0.30;;
36443;SDS011;24692;45.642;13.806;2024-01-07T00:24:26;0.40;;;0.40;;
36443;SDS011;24692;45.642;13.806;2024-01-07T00:26:54;0.40;;;0.40;;
36443;SDS011;24692;45.642;13.806;2024-01-07T00:29:20;0.40;;;0.33;;
36443;SDS011;24692;45.642;13.806;2024-01-07T00:31:46;0.23;;;0.23;;
36443;SDS011;24692;45.642;13.806;2024-01-07T00:34:11;0.43;;;0.43;;
36443;SDS011;24692;45.642;13.806;2024-01-07T00:36:37;0.20;;;0.20;;
36443;SDS011;24692;45.642;13.806;2024-01-07T00:39:03;0.20;;;0.20;;
36443;SDS011;24692;45.642;13.806;2024-01-07T00:41:29;0.30;;;0.30;;
36443;SDS011;24692;45.642;13.806;2024-01-07T00:43:55;1.33;;;0.33;;
36443;SDS011;24692;45.642;13.806;2024-01-07T00:46:22;0.30;;;0.30;;
36443;SDS011;24692;45.642;13.806;2024-01-07T00:48:47;0.30;;;0.30;;
36443;SDS011;24692;45.642;13.806;2024-01-07T00:51:13;0.70;;;0.33;;
36443;SDS011;24692;45.642;13.806;2024-01-07T00:53:39;0.30;;;0.30;;
36443;SDS011;24692;45.642;13.806;2024-01-07T00:56:05;0.50;;;0.50;;
36443;SDS011;24692;45.642;13.806;2024-01-07T00:58:32;0.30;;;0.30;;
36443;SDS011;24692;45.642;13.806;2024-01-07T01:00:58;0.30;;;0.30;;
36443;SDS011;24692;45.642;13.806;2024-01-07T01:03:25;0.70;;;0.30;;
36443;SDS011;24692;45.642;13.806;2024-01-07T01:05:51;0.13;;;0.13;;
36443;SDS011;24692;45.642;13.806;2024-01-07T01:08:17;0.40;;;0.27;;
36443;SDS011;24692;45.642;13.806;2024-01-07T01:10:42;1.87;;;0.37;;
36443;SDS011;24692;45.642;13.806;2024-01-07T01:13:08;0.30;;;0.23;;
36443;SDS011;24692;45.642;13.806;2024-01-07T01:15:34;0.30;;;0.30;;
36443;SDS011;24692;45.642;13.806;2024-01-07T01:18:00;0.20;;;0.10;;
36443;SDS011;24692;45.642;13.806;2024-01-07T01:20:26;0.67;;;0.33;;
36443;SDS011;24692;45.642;13.806;2024-01-07T01:22:51;1.33;;;0.30;;
36443;SDS011;24692;45.642;13.806;2024-01-07T01:25:17;0.27;;;0.27;;
36443;SDS011;24692;45.642;13.806;2024-01-07T01:27:43;0.57;;;0.50;;
36443;SDS011;24692;45.642;13.806;2024-01-07T01:30:10;0.30;;;0.30;;
36443;SDS011;24692;45.642;13.806;2024-01-07T01:32:36;0.20;;;0.20;;
36443;SDS011;24692;45.642;13.806;2024-01-07T01:35:01;0.20;;;0.20;;
36443;SDS011;24692;45.642;13.806;2024-01-07T01:37:28;0.30;;;0.30;;
36443;SDS011;24692;45.642;13.806;2024-01-07T01:39:54;0.30;;;0.23;;
36443;SDS011;24692;45.642;13.806;2024-01-07T01:42:19;0.70;;;0.30;;
36443;SDS011;24692;45.642;13.806;2024-01-07T01:44:46;0.30;;;0.30;;
36443;SDS011;24692;45.642;13.806;2024-01-07T01:47:11;1.60;;;0.20;;
36443;SDS011;24692;45.642;13.806;2024-01-07T01:49:37;0.30;;;0.30;;
36443;SDS011;24692;45.642;13.806;2024-01-07T01:52:04;0.30;;;0.30;;
36443;SDS011;24692;45.642;13.806;2024-01-07T01:54:30;0.30;;;0.30;;
36443;SDS011;24692;45.642;13.806;2024-01-07T01:56:56;0.30;;;0.30;;
36443;SDS011;24692;45.642;13.806;2024-01-07T01:59:22;0.30;;;0.30;;
36443;SDS011;24692;45.642;13.806;2024-01-07T02:01:49;0.63;;;0.23;;
36443;SDS011;24692;45.642;13.806;2024-01-07T02:04:15;0.30;;;0.30;;
36443;SDS011;24692;45.642;13.806;2024-01-07T02:06:40;0.20;;;0.20;;
36443;SDS011;24692;45.642;13.806;2024-01-07T02:09:06;0.30;;;0.30;;
36443;SDS011;24692;45.642;13.806;2024-01-07T02:11:32;0.40;;;0.20;;
36443;SDS011;24692;45.642;13.806;2024-01-07T02:13:58;0.70;;;0.30;;
36443;SDS011;24692;45.642;13.806;2024-01-07T02:16:23;0.23;;;0.23;;
36443;SDS011;24692;45.642;13.806;2024-01-07T02:18:49;0.60;;;0.30;;
36443;SDS011;24692;45.642;13.806;2024-01-07T02:21:15;0.20;;;0.20;;
36443;SDS011;24692;45.642;13.806;2024-01-07T02:23:41;0.30;;;0.30;;
36443;SDS011;24692;45.642;13.806;2024-01-07T02:26:07;0.57;;;0.23;;
36443;SDS011;24692;45.642;13.806;2024-01-07T02:28:33;0.30;;;0.30;;
36443;SDS011;24692;45.642;13.806;2024-01-07T02:30:59;0.20;;;0.20;;
36443;SDS011;24692;45.642;13.806;2024-01-07T02:33:25;0.20;;;0.20;;
36443;SDS011;24692;45.642;13.806;2024-01-07T02:35:50;0.10;;;0.10;;
36443;SDS011;24692;45.642;13.806;2024-01-07T02:38:16;0.30;;;0.20;;
36443;SDS011;24692;45.642;13.806;2024-01-07T02:40:42;0.30;;;0.30;;
36443;SDS011;24692;45.642;13.806;2024-01-07T02:43:07;0.17;;;0.17;;
36443;SDS011;24692;45.642;13.806;2024-01-07T02:45:33;0.20;;;0.20;;
36443;SDS011;24692;45.642;13.806;2024-01-07T02:47:59;0.43;;;0.30;;
36443;SDS011;24692;45.642;13.806;2024-01-07T02:50:25;0.20;;;0.20;;
36443;SDS011;24692;45.642;13.806;2024-01-07T02:52:50;0.20;;;0.20;;
36443;SDS011;24692;45.642;13.806;2024-01-07T02:55:16;0.10;;;0.10;;
36443;SDS011;24692;45.642;13.806;2024-01-07T02:57:42;0.33;;;0.20;;
36443;SDS011;24692;45.642;13.806;2024-01-07T03:00:08;1.50;;;0.20;;
36443;SDS011;24692;45.642;13.806;2024-01-07T03:02:33;0.10;;;0.10;;
36443;SDS011;24692;45.642;13.806;2024-01-07T03:04:59;0.30;;;0.30;;
36443;SDS011;24692;45.642;13.806;2024-01-07T03:07:25;0.27;;;0.27;;
36443;SDS011;24692;45.642;13.806;2024-01-07T03:09:51;0.30;;;0.30;;
36443;SDS011;24692;45.642;13.806;2024-01-07T03:12:16;0.23;;;0.20;;
36443;SDS011;24692;45.642;13.806;2024-01-07T03:14:42;0.67;;;0.20;;
36443;SDS011;24692;45.642;13.806;2024-01-07T03:17:09;0.30;;;0.30;;
36443;SDS011;24692;45.642;13.806;2024-01-07T03:19:35;0.20;;;0.20;;
36443;SDS011;24692;45.642;13.806;2024-01-07T03:22:02;0.30;;;0.30;;
36443;SDS011;24692;45.642;13.806;2024-01-07T03:24:28;0.10;;;0.10;;
36443;SDS011;24692;45.642;13.806;2024-01-07T03:26:54;0.20;;;0.20;;
36443;SDS011;24692;45.642;13.806;2024-01-07T03:29:19;0.20;;;0.20;;
36443;SDS011;24692;45.642;13.806;2024-01-07T03:31:45;0.17;;;0.17;;
36443;SDS011;24692;45.642;13.806;2024-01-07T03:34:11;0.10;;;0.10;;
36443;SDS011;24692;45.642;13.806;2024-01-07T03:36:36;0.17;;;0.17;;
36443;SDS011;24692;45.642;13.806;2024-01-07T03:39:02;0.10;;;0.10;;
36443;SDS011;24692;45.642;13.806;2024-01-07T03:41:28;0.13;;;0.13;;
36443;SDS011;24692;45.642;13.806;2024-01-07T03:43:53;0.20;;;0.20;;
36443;SDS011;24692;45.642;13.806;2024-01-07T03:46:20;0.13;;;0.13;;
36443;SDS011;24692;45.642;13.806;2024-01-07T03:48:45;0.33;;;0.23;;
36443;SDS011;24692;45.642;13.806;2024-01-07T03:51:11;0.20;;;0.20;;
36443;SDS011;24692;45.642;13.806;2024-01-07T03:53:37;0.10;;;0.10;;
36443;SDS011;24692;45.642;13.806;2024-01-07T03:56:02;0.40;;;0.20;;
36443;SDS011;24692;45.642;13.806;2024-01-07T03:58:28;0.30;;;0.30;;
36443;SDS011;24692;45.642;13.806;2024-01-07T04:00:54;0.30;;;0.30;;
36443;SDS011;24692;45.642;13.806;2024-01-07T04:03:20;0.50;;;0.50;;
36443;SDS011;24692;45.642;13.806;2024-01-07T04:05:45;0.40;;;0.40;;
36443;SDS011;24692;45.642;13.806;2024-01-07T04:08:11;0.30;;;0.30;;
36443;SDS011;24692;45.642;13.806;2024-01-07T04:10:37;0.40;;;0.40;;
36443;SDS011;24692;45.642;13.806;2024-01-07T04:13:06;0.30;;;0.30;;
36443;SDS011;24692;45.642;13.806;2024-01-07T04:15:32;0.20;;;0.20;;
36443;SDS011;24692;45.642;13.806;2024-01-07T04:18:00;0.23;;;0.23;;
36443;SDS011;24692;45.642;13.806;2024-01-07T04:20:29;0.23;;;0.23;;
36443;SDS011;24692;45.642;13.806;2024-01-07T04:22:56;1.40;;;0.20;;
36443;SDS011;24692;45.642;13.806;2024-01-07T04:25:22;0.20;;;0.20;;
36443;SDS011;24692;45.642;13.806;2024-01-07T04:27:48;0.40;;;0.40;;
36443;SDS011;24692;45.642;13.806;2024-01-07T04:30:14;0.20;;;0.20;;
36443;SDS011;24692;45.642;13.806;2024-01-07T04:32:40;1.20;;;0.20;;
36443;SDS011;24692;45.642;13.806;2024-01-07T04:35:05;0.23;;;0.23;;
36443;SDS011;24692;45.642;13.806;2024-01-07T04:37:32;0.40;;;0.40;;
36443;SDS011;24692;45.642;13.806;2024-01-07T04:39:58;0.30;;;0.30;;
36443;SDS011;24692;45.642;13.806;2024-01-07T04:42:24;0.20;;;0.20;;
36443;SDS011;24692;45.642;13.806;2024-01-07T04:44:49;0.10;;;0.10;;
36443;SDS011;24692;45.642;13.806;2024-01-07T04:47:25;0.10;;;0.10;;
36443;SDS011;24692;45.642;13.806;2024-01-07T04:49:52;0.20;;;0.20;;
36443;SDS011;24692;45.642;13.806;2024-01-07T04:52:18;0.20;;;0.20;;
36443;SDS011;24692;45.642;13.806;2024-01-07T04:54:43;0.20;;;0.20;;
36443;SDS011;24692;45.642;13.806;2024-01-07T04:57:09;0.20;;;0.20;;
36443;SDS011;24692;45.642;13.806;2024-01-07T04:59:35;0.43;;;0.27;;
36443;SDS011;24692;45.642;13.806;2024-01-07T05:02:00;0.10;;;0.10;;
36443;SDS011;24692;45.642;13.806;2024-01-07T05:04:26;0.20;;;0.20;;
36443;SDS011;24692;45.642;13.806;2024-01-07T05:06:51;0.20;;;0.20;;
36443;SDS011;24692;45.642;13.806;2024-01-07T05:09:17;0.10;;;0.10;;
36443;SDS011;24692;45.642;13.806;2024-01-07T05:11:43;0.13;;;0.13;;
36443;SDS011;24692;45.642;13.806;2024-01-07T05:14:10;0.23;;;0.23;;
36443;SDS011;24692;45.642;13.806;2024-01-07T05:16:36;0.33;;;0.33;;
36443;SDS011;24692;45.642;13.806;2024-01-07T05:19:02;0.20;;;0.20;;
36443;SDS011;24692;45.642;13.806;2024-01-07T05:21:28;0.20;;;0.20;;
36443;SDS011;24692;45.642;13.806;2024-01-07T05:23:54;0.20;;;0.20;;
36443;SDS011;24692;45.642;13.806;2024-01-07T05:26:21;0.27;;;0.27;;
36443;SDS011;24692;45.642;13.806;2024-01-07T05:28:47;0.67;;;0.20;;
36443;SDS011;24692;45.642;13.806;2024-01-07T05:31:14;0.20;;;0.20;;
36443;SDS011;24692;45.642;13.806;2024-01-07T05:33:40;0.20;;;0.20;;
36443;SDS011;24692;45.642;13.806;2024-01-07T05:36:06;0.30;;;0.30;;
36443;SDS011;24692;45.642;13.806;2024-01-07T05:38:31;0.10;;;0.10;;
36443;SDS011;24692;45.642;13.806;2024-01-07T05:40:57;0.20;;;0.20;;
36443;SDS011;24692;45.642;13.806;2024-01-07T05:43:23;0.20;;;0.20;;
36443;SDS011;24692;45.642;13.806;2024-01-07T05:45:48;0.23;;;0.23;;
36443;SDS011;24692;45.642;13.806;2024-01-07T05:48:14;0.40;;;0.20;;
36443;SDS011;24692;45.642;13.806;2024-01-07T05:50:39;0.10;;;0.10;;
36443;SDS011;24692;45.642;13.806;2024-01-07T05:53:05;0.20;;;0.20;;
36443;SDS011;24692;45.642;13.806;2024-01-07T05:55:31;0.20;;;0.20;;
36443;SDS011;24692;45.642;13.806;2024-01-07T05:57:56;0.10;;;0.10;;
36443;SDS011;24692;45.642;13.806;2024-01-07T06:00:23;0.20;;;0.20;;
36443;SDS011;24692;45.642;13.806;2024-01-07T06:02:48;0.40;;;0.40;;
36443;SDS011;24692;45.642;13.806;2024-01-07T06:05:14;0.20;;;0.20;;
36443;SDS011;24692;45.642;13.806;2024-01-07T06:07:40;0.30;;;0.30;;
36443;SDS011;24692;45.642;13.806;2024-01-07T06:10:05;0.33;;;0.30;;
36443;SDS011;24692;45.642;13.806;2024-01-07T06:12:31;0.50;;;0.30;;
36443;SDS011;24692;45.642;13.806;2024-01-07T06:14:57;0.20;;;0.20;;
36443;SDS011;24692;45.642;13.806;2024-01-07T06:17:22;0.23;;;0.23;;
36443;SDS011;24692;45.642;13.806;2024-01-07T06:19:48;0.30;;;0.30;;
36443;SDS011;24692;45.642;13.806;2024-01-07T06:22:14;0.30;;;0.30;;
36443;SDS011;24692;45.642;13.806;2024-01-07T06:24:40;0.20;;;0.20;;
36443;SDS011;24692;45.642;13.806;2024-01-07T06:27:05;0.17;;;0.17;;
36443;SDS011;24692;45.642;13.806;2024-01-07T06:29:31;0.20;;;0.20;;
36443;SDS011;24692;45.642;13.806;2024-01-07T06:31:57;0.20;;;0.20;;
36443;SDS011;24692;45.642;13.806;2024-01-07T06:34:22;0.20;;;0.20;;
36443;SDS011;24692;45.642;13.806;2024-01-07T06:36:48;0.47;;;0.40;;
36443;SDS011;24692;45.642;13.806;2024-01-07T06:39:14;0.20;;;0.20;;
36443;SDS011;24692;45.642;13.806;2024-01-07T06:41:39;0.20;;;0.20;;
36443;SDS011;24692;45.642;13.806;2024-01-07T06:44:05;0.23;;;0.23;;
36443;SDS011;24692;45.642;13.806;2024-01-07T06:46:31;0.30;;;0.20;;
36443;SDS011;24692;45.642;13.806;2024-01-07T06:48:56;0.10;;;0.10;;
36443;SDS011;24692;45.642;13.806;2024-01-07T06:51:23;0.40;;;0.40;;
36443;SDS011;24692;45.642;13.806;2024-01-07T06:53:49;0.40;;;0.40;;
36443;SDS011;24692;45.642;13.806;2024-01-07T06:56:15;0.40;;;0.40;;
36443;SDS011;24692;45.642;13.806;2024-01-07T06:58:40;0.30;;;0.30;;
36443;SDS011;24692;45.642;13.806;2024-01-07T07:01:06;0.70;;;0.40;;
36443;SDS011;24692;45.642;13.806;2024-01-07T07:03:32;0.30;;;0.30;;
36443;SDS011;24692;45.642;13.806;2024-01-07T07:05:58;0.30;;;0.30;;
36443;SDS011;24692;45.642;13.806;2024-01-07T07:08:23;0.30;;;0.30;;
36443;SDS011;24692;45.642;13.806;2024-01-07T07:10:49;0.33;;;0.33;;
36443;SDS011;24692;45.642;13.806;2024-01-07T07:13:15;0.40;;;0.40;;
36443;SDS011;24692;45.642;13.806;2024-01-07T07:15:41;0.60;;;0.30;;
36443;SDS011;24692;45.642;13.806;2024-01-07T07:18:07;0.40;;;0.40;;
36443;SDS011;24692;45.642;13.806;2024-01-07T07:20:33;0.60;;;0.30;;
36443;SDS011;24692;45.642;13.806;2024-01-07T07:22:59;0.40;;;0.40;;
36443;SDS011;24692;45.642;13.806;2024-01-07T07:25:24;0.33;;;0.33;;
36443;SDS011;24692;45.642;13.806;2024-01-07T07:27:50;1.33;;;0.40;;
36443;SDS011;24692;45.642;13.806;2024-01-07T07:30:16;0.43;;;0.37;;
36443;SDS011;24692;45.642;13.806;2024-01-07T07:32:43;0.30;;;0.30;;
36443;SDS011;24692;45.642;13.806;2024-01-07T07:35:09;0.30;;;0.30;;
36443;SDS011;24692;45.642;13.806;2024-01-07T07:37:35;0.20;;;0.20;;
36443;SDS011;24692;45.642;13.806;2024-01-07T07:40:01;0.37;;;0.37;;
36443;SDS011;24692;45.642;13.806;2024-01-07T07:42:27;0.40;;;0.40;;
36443;SDS011;24692;45.642;13.806;2024-01-07T07:44:53;1.00;;;0.60;;
36443;SDS011;24692;45.642;13.806;2024-01-07T07:47:19;0.40;;;0.40;;
36443;SDS011;24692;45.642;13.806;2024-01-07T07:49:45;1.37;;;0.47;;
36443;SDS011;24692;45.642;13.806;2024-01-07T07:52:11;0.43;;;0.43;;
36443;SDS011;24692;45.642;13.806;2024-01-07T07:54:39;0.93;;;0.50;;
36443;SDS011;24692;45.642;13.806;2024-01-07T07:57:05;0.30;;;0.30;;
36443;SDS011;24692;45.642;13.806;2024-01-07T07:59:30;1.63;;;0.70;;
36443;SDS011;24692;45.642;13.806;2024-01-07T08:01:56;0.30;;;0.30;;
36443;SDS011;24692;45.642;13.806;2024-01-07T08:04:22;0.50;;;0.50;;
36443;SDS011;24692;45.642;13.806;2024-01-07T08:06:47;0.60;;;0.60;;
36443;SDS011;24692;45.642;13.806;2024-01-07T08:09:13;0.53;;;0.53;;
36443;SDS011;24692;45.642;13.806;2024-01-07T08:11:39;0.50;;;0.50;;
36443;SDS011;24692;45.642;13.806;2024-01-07T08:14:04;0.93;;;0.73;;
36443;SDS011;24692;45.642;13.806;2024-01-07T08:16:31;0.57;;;0.53;;
36443;SDS011;24692;45.642;13.806;2024-01-07T08:18:56;0.40;;;0.40;;
36443;SDS011;24692;45.642;13.806;2024-01-07T08:21:22;0.80;;;0.33;;
36443;SDS011;24692;45.642;13.806;2024-01-07T08:23:48;0.40;;;0.30;;
36443;SDS011;24692;45.642;13.806;2024-01-07T08:26:18;0.73;;;0.70;;
36443;SDS011;24692;45.642;13.806;2024-01-07T08:28:44;0.40;;;0.40;;
36443;SDS011;24692;45.642;13.806;2024-01-07T08:31:10;0.30;;;0.30;;
36443;SDS011;24692;45.642;13.806;2024-01-07T08:33:36;0.60;;;0.60;;
36443;SDS011;24692;45.642;13.806;2024-01-07T08:36:01;0.50;;;0.50;;
36443;SDS011;24692;45.642;13.806;2024-01-07T08:38:27;0.30;;;0.30;;
36443;SDS011;24692;45.642;13.806;2024-01-07T08:40:53;0.40;;;0.40;;
36443;SDS011;24692;45.642;13.806;2024-01-07T08:43:19;0.53;;;0.40;;
36443;SDS011;24692;45.642;13.806;2024-01-07T08:45:44;0.50;;;0.50;;
36443;SDS011;24692;45.642;13.806;2024-01-07T08:48:10;0.40;;;0.40;;
36443;SDS011;24692;45.642;13.806;2024-01-07T08:50:37;3.40;;;0.50;;
36443;SDS011;24692;45.642;13.806;2024-01-07T08:53:03;0.67;;;0.67;;
36443;SDS011;24692;45.642;13.806;2024-01-07T08:55:29;0.47;;;0.47;;
36443;SDS011;24692;45.642;13.806;2024-01-07T08:57:55;0.57;;;0.40;;
36443;SDS011;24692;45.642;13.806;2024-01-07T09:00:21;0.67;;;0.67;;
36443;SDS011;24692;45.642;13.806;2024-01-07T09:02:51;0.30;;;0.23;;
36443;SDS011;24692;45.642;13.806;2024-01-07T09:05:17;0.93;;;0.40;;
36443;SDS011;24692;45.642;13.806;2024-01-07T09:07:42;0.50;;;0.50;;
36443;SDS011;24692;45.642;13.806;2024-01-07T09:10:08;0.70;;;0.70;;
36443;SDS011;24692;45.642;13.806;2024-01-07T09:12:38;1.30;;;0.60;;
36443;SDS011;24692;45.642;13.806;2024-01-07T09:15:04;0.53;;;0.53;;
36443;SDS011;24692;45.642;13.806;2024-01-07T09:17:36;0.33;;;0.33;;
36443;SDS011;24692;45.642;13.806;2024-01-07T09:20:03;0.60;;;0.60;;
36443;SDS011;24692;45.642;13.806;2024-01-07T09:22:32;0.60;;;0.53;;
36443;SDS011;24692;45.642;13.806;2024-01-07T09:24:59;0.80;;;0.80;;
36443;SDS011;24692;45.642;13.806;2024-01-07T09:27:25;2.47;;;0.90;;
36443;SDS011;24692;45.642;13.806;2024-01-07T09:29:51;0.77;;;0.57;;
36443;SDS011;24692;45.642;13.806;2024-01-07T09:32:17;0.87;;;0.60;;
36443;SDS011;24692;45.642;13.806;2024-01-07T09:34:42;0.50;;;0.50;;
36443;SDS011;24692;45.642;13.806;2024-01-07T09:37:08;0.60;;;0.60;;
36443;SDS011;24692;45.642;13.806;2024-01-07T09:39:38;0.60;;;0.50;;
36443;SDS011;24692;45.642;13.806;2024-01-07T09:42:06;0.40;;;0.40;;
36443;SDS011;24692;45.642;13.806;2024-01-07T09:44:37;2.37;;;0.70;;
36443;SDS011;24692;45.642;13.806;2024-01-07T09:47:03;0.50;;;0.50;;
36443;SDS011;24692;45.642;13.806;2024-01-07T09:49:30;0.50;;;0.50;;
36443;SDS011;24692;45.642;13.806;2024-01-07T09:51:59;0.70;;;0.70;;
36443;SDS011;24692;45.642;13.806;2024-01-07T09:54:28;0.47;;;0.47;;
36443;SDS011;24692;45.642;13.806;2024-01-07T09:56:55;0.50;;;0.50;;
36443;SDS011;24692;45.642;13.806;2024-01-07T09:59:30;1.43;;;0.40;;
36443;SDS011;24692;45.642;13.806;2024-01-07T10:01:56;1.57;;;0.97;;
36443;SDS011;24692;45.642;13.806;2024-01-07T10:04:25;0.50;;;0.50;;
36443;SDS011;24692;45.642;13.806;2024-01-07T10:06:52;0.60;;;0.60;;
36443;SDS011;24692;45.642;13.806;2024-01-07T10:09:19;0.57;;;0.57;;
36443;SDS011;24692;45.642;13.806;2024-01-07T10:11:48;0.97;;;0.93;;
36443;SDS011;24692;45.642;13.806;2024-01-07T10:14:14;3.77;;;0.87;;
36443;SDS011;24692;45.642;13.806;2024-01-07T10:16:40;0.53;;;0.40;;
36443;SDS011;24692;45.642;13.806;2024-01-07T10:19:06;1.10;;;0.60;;
36443;SDS011;24692;45.642;13.806;2024-01-07T10:21:32;0.70;;;0.70;;
36443;SDS011;24692;45.642;13.806;2024-01-07T10:24:10;0.47;;;0.47;;
36443;SDS011;24692;45.642;13.806;2024-01-07T10:26:40;0.70;;;0.70;;
36443;SDS011;24692;45.642;13.806;2024-01-07T10:29:06;0.60;;;0.60;;
36443;SDS011;24692;45.642;13.806;2024-01-07T10:31:37;0.60;;;0.60;;
36443;SDS011;24692;45.642;13.806;2024-01-07T10:34:07;1.10;;;0.87;;
36443;SDS011;24692;45.642;13.806;2024-01-07T10:36:34;0.90;;;0.80;;
36443;SDS011;24692;45.642;13.806;2024-01-07T10:39:02;0.70;;;0.70;;
36443;SDS011;24692;45.642;13.806;2024-01-07T10:41:28;2.10;;;0.80;;
36443;SDS011;24692;45.642;13.806;2024-01-07T10:43:55;2.07;;;0.90;;
36443;SDS011;24692;45.642;13.806;2024-01-07T10:46:21;1.47;;;1.10;;
36443;SDS011;24692;45.642;13.806;2024-01-07T10:51:20;1.90;;;0.83;;
36443;SDS011;24692;45.642;13.806;2024-01-07T10:53:51;1.27;;;0.90;;
36443;SDS011;24692;45.642;13.806;2024-01-07T10:56:31;0.70;;;0.70;;
36443;SDS011;24692;45.642;13.806;2024-01-07T10:59:04;0.80;;;0.80;;
36443;SDS011;24692;45.642;13.806;2024-01-07T11:01:29;1.00;;;0.77;;
36443;SDS011;24692;45.642;13.806;2024-01-07T11:06:33;0.90;;;0.77;;
36443;SDS011;24692;45.642;13.806;2024-01-07T11:11:54;2.10;;;0.60;;
36443;SDS011;24692;45.642;13.806;2024-01-07T11:14:33;0.90;;;0.60;;
36443;SDS011;24692;45.642;13.806;2024-01-07T11:17:04;0.80;;;0.80;;
36443;SDS011;24692;45.642;13.806;2024-01-07T11:19:32;0.80;;;0.80;;
36443;SDS011;24692;45.642;13.806;2024-01-07T11:24:53;0.80;;;0.80;;
36443;SDS011;24692;45.642;13.806;2024-01-07T11:27:21;0.50;;;0.50;;
36443;SDS011;24692;45.642;13.806;2024-01-07T11:30:20;0.60;;;0.60;;
36443;SDS011;24692;45.642;13.806;2024-01-07T11:32:45;0.80;;;0.80;;
36443;SDS011;24692;45.642;13.806;2024-01-07T11:35:13;0.70;;;0.70;;
36443;SDS011;24692;45.642;13.806;2024-01-07T11:37:46;2.30;;;0.80;;
36443;SDS011;24692;45.642;13.806;2024-01-07T11:40:12;0.80;;;0.80;;
36443;SDS011;24692;45.642;13.806;2024-01-07T11:42:39;0.60;;;0.60;;
36443;SDS011;24692;45.642;13.806;2024-01-07T11:45:05;0.70;;;0.60;;
36443;SDS011;24692;45.642;13.806;2024-01-07T11:47:32;1.00;;;0.97;;
36443;SDS011;24692;45.642;13.806;2024-01-07T11:49:57;1.00;;;0.87;;
36443;SDS011;24692;45.642;13.806;2024-01-07T11:52:25;0.60;;;0.60;;
36443;SDS011;24692;45.642;13.806;2024-01-07T11:54:50;1.33;;;0.87;;
36443;SDS011;24692;45.642;13.806;2024-01-07T11:57:16;1.20;;;1.00;;
36443;SDS011;24692;45.642;13.806;2024-01-07T11:59:42;1.40;;;0.90;;
36443;SDS011;24692;45.642;13.806;2024-01-07T12:02:08;1.60;;;1.20;;
36443;SDS011;24692;45.642;13.806;2024-01-07T12:04:34;1.43;;;1.17;;
36443;SDS011;24692;45.642;13.806;2024-01-07T12:06:59;1.10;;;0.80;;
36443;SDS011;24692;45.642;13.806;2024-01-07T12:09:26;0.90;;;0.70;;
36443;SDS011;24692;45.642;13.806;2024-01-07T12:11:57;1.00;;;1.00;;
36443;SDS011;24692;45.642;13.806;2024-01-07T12:14:23;0.93;;;0.90;;
36443;SDS011;24692;45.642;13.806;2024-01-07T12:16:52;1.20;;;1.10;;
36443;SDS011;24692;45.642;13.806;2024-01-07T12:19:21;1.07;;;0.97;;
36443;SDS011;24692;45.642;13.806;2024-01-07T12:22:03;0.80;;;0.80;;
36443;SDS011;24692;45.642;13.806;2024-01-07T12:24:34;2.17;;;1.10;;
36443;SDS011;24692;45.642;13.806;2024-01-07T12:27:05;0.93;;;0.83;;
36443;SDS011;24692;45.642;13.806;2024-01-07T12:29:41;1.03;;;0.97;;
36443;SDS011;24692;45.642;13.806;2024-01-07T12:32:18;0.97;;;0.97;;
36443;SDS011;24692;45.642;13.806;2024-01-07T12:34:47;1.10;;;1.00;;
36443;SDS011;24692;45.642;13.806;2024-01-07T12:37:15;1.07;;;0.90;;
36443;SDS011;24692;45.642;13.806;2024-01-07T12:39:41;1.00;;;0.83;;
36443;SDS011;24692;45.642;13.806;2024-01-07T12:42:09;1.53;;;1.27;;
36443;SDS011;24692;45.642;13.806;2024-01-07T12:44:38;0.97;;;0.93;;
36443;SDS011;24692;45.642;13.806;2024-01-07T12:47:04;1.10;;;1.00;;
36443;SDS011;24692;45.642;13.806;2024-01-07T12:49:30;1.23;;;1.00;;
36443;SDS011;24692;45.642;13.806;2024-01-07T12:51:56;1.60;;;1.10;;
36443;SDS011;24692;45.642;13.806;2024-01-07T12:54:22;1.57;;;0.90;;
36443;SDS011;24692;45.642;13.806;2024-01-07T12:56:49;1.30;;;1.20;;
36443;SDS011;24692;45.642;13.806;2024-01-07T12:59:15;1.80;;;1.30;;
36443;SDS011;24692;45.642;13.806;2024-01-07T13:01:41;1.83;;;1.43;;
36443;SDS011;24692;45.642;13.806;2024-01-07T13:04:06;1.20;;;1.10;;
36443;SDS011;24692;45.642;13.806;2024-01-07T13:06:34;1.30;;;1.17;;
36443;SDS011;24692;45.642;13.806;2024-01-07T13:09:00;1.30;;;1.20;;
36443;SDS011;24692;45.642;13.806;2024-01-07T13:11:29;0.90;;;0.90;;
36443;SDS011;24692;45.642;13.806;2024-01-07T13:13:55;1.60;;;1.40;;
36443;SDS011;24692;45.642;13.806;2024-01-07T13:16:25;1.80;;;1.30;;
36443;SDS011;24692;45.642;13.806;2024-01-07T13:18:51;1.43;;;1.30;;
36443;SDS011;24692;45.642;13.806;2024-01-07T13:21:16;1.13;;;1.03;;
36443;SDS011;24692;45.642;13.806;2024-01-07T13:23:43;1.40;;;1.30;;
36443;SDS011;24692;45.642;13.806;2024-01-07T13:26:09;1.20;;;1.10;;
36443;SDS011;24692;45.642;13.806;2024-01-07T13:28:35;1.17;;;1.00;;
36443;SDS011;24692;45.642;13.806;2024-01-07T13:31:01;0.97;;;0.97;;
36443;SDS011;24692;45.642;13.806;2024-01-07T13:33:28;1.03;;;0.90;;
36443;SDS011;24692;45.642;13.806;2024-01-07T13:35:54;0.50;;;0.50;;
36443;SDS011;24692;45.642;13.806;2024-01-07T13:38:23;0.73;;;0.70;;
36443;SDS011;24692;45.642;13.806;2024-01-07T13:40:48;0.80;;;0.80;;
36443;SDS011;24692;45.642;13.806;2024-01-07T13:43:26;1.17;;;0.90;;
36443;SDS011;24692;45.642;13.806;2024-01-07T13:45:57;0.70;;;0.70;;
36443;SDS011;24692;45.642;13.806;2024-01-07T13:48:27;0.80;;;0.80;;
36443;SDS011;24692;45.642;13.806;2024-01-07T13:50:58;1.00;;;0.90;;
36443;SDS011;24692;45.642;13.806;2024-01-07T13:53:41;1.03;;;0.93;;
36443;SDS011;24692;45.642;13.806;2024-01-07T13:56:11;1.37;;;1.00;;
36443;SDS011;24692;45.642;13.806;2024-01-07T13:58:37;2.07;;;0.90;;
36443;SDS011;24692;45.642;13.806;2024-01-07T14:01:03;1.10;;;0.90;;
36443;SDS011;24692;45.642;13.806;2024-01-07T14:03:30;1.40;;;0.97;;
36443;SDS011;24692;45.642;13.806;2024-01-07T14:05:57;0.80;;;0.80;;
36443;SDS011;24692;45.642;13.806;2024-01-07T14:08:23;0.80;;;0.80;;
36443;SDS011;24692;45.642;13.806;2024-01-07T14:10:49;0.80;;;0.80;;
36443;SDS011;24692;45.642;13.806;2024-01-07T14:13:14;0.90;;;0.80;;
36443;SDS011;24692;45.642;13.806;2024-01-07T14:15:40;1.10;;;1.00;;
36443;SDS011;24692;45.642;13.806;2024-01-07T14:18:07;0.80;;;0.80;;
36443;SDS011;24692;45.642;13.806;2024-01-07T14:20:35;1.03;;;0.83;;
36443;SDS011;24692;45.642;13.806;2024-01-07T14:23:00;1.23;;;0.90;;
36443;SDS011;24692;45.642;13.806;2024-01-07T14:25:26;0.70;;;0.70;;
36443;SDS011;24692;45.642;13.806;2024-01-07T14:27:52;1.00;;;0.90;;
36443;SDS011;24692;45.642;13.806;2024-01-07T14:30:17;0.80;;;0.80;;
36443;SDS011;24692;45.642;13.806;2024-01-07T14:32:43;1.10;;;1.00;;
36443;SDS011;24692;45.642;13.806;2024-01-07T14:35:10;0.97;;;0.70;;
36443;SDS011;24692;45.642;13.806;2024-01-07T14:37:38;1.00;;;0.97;;
36443;SDS011;24692;45.642;13.806;2024-01-07T14:40:05;1.23;;;1.07;;